首页
METAR-TAF:

METAR-TAF

机场 :

楚克國際機場

維諾, 密克罗尼西亚群岛

纬度: 07-28N, 经度: 151-51E, 海拔: 3米

当前天气观测

该预报发布于28分钟前的03:53 UTC
风速6节,风向东北
温度 31°C
湿度 66%
气压 1008 hPa
能見度: 24.1公里
少量云层高于1600英尺
散云层高于12000英尺
散云层高于30000英尺

METAR: PTKK 230353Z 04006KT 15SM FEW016 SCT120 SCT300 31/24 A2978 RMK SLP088 T03060244

时间: 14:21 (04:21 UTC)

预报

该预报发布于5小时和1分钟前的23:20 UTC
预报有效从23日的 00点(UTC)到 23日的 24点(UTC)
风速6节,风向东转东北
能見度: 10公里
少量云层高于1400英尺
散云层高于13000英尺

TAF: PTKK 222320Z 2300/2324 07006KT P6SM FEW014 SCT130

超过4000个机场的气象观测和天气预报(METAR&TAF报告)。

可查询的气象台以黄色和红色小点在地图上表示。

将鼠标移到小点上方,可查看气象台名称。

然后点击查看天气观测和预报。

如需切换地图:点击带黑十字的绿色按钮放大地图;点击带横线的绿色按钮缩小地图;或者点击绿色箭头查看邻近地区的地图。


METAR-TAF: